Alaska, Minnesota
Current Conditions -  °F | °C
As of 4:52 AM on Saturday 22 Nov 2014 (Local Time) from KBJI Reporting Station
Clear Clear  
Wind Chill: 26°   Ceiling: Unl
Heat Index: 26°   Visibility: 10mi
Dew Point: 24°   Wind: 0mph
Humidity: 93%   Direction: NA
Pressure: 29.63"   Gusts: NA
Location:  47.7369°N, 94.9947°W
Report Text: KBJI 221052Z AUTO 00000KT 10SM CLR M03/M04 A2963 RMK AO2 T10331043
Loading
Personal Weather Stations






























Interactive Weather Map New forecast layout! Learn more

10-Day Weather Forecast

Advertisements
Track Severe Weather on mobile